Austin, Texas
Traffic Map
Current Weather Conditions
Austin, Texas
Clear
Clear

Feels Like: 8°
Wind Chill: Ceiling: Unl
Heat Index: Visibility: 10mi
Dew Point: Wind: 7mph
Humidity: 54% Direction: 290° (WNW)
Pressure: 30.23in Gusts: 0mph
Raw Report DataKATT 260951Z AUTO 29006KT 10SM CLR 09/01 A3023 RMK AO2 SLP233 T00940006 $
Traffic Incident Summary
Active as of:
Severity:
Category:
InformationThere was an issue retrieving the traffic information for this location. Please try a different location or try again shortly.
Advertisements
Track Severe Weather on mobile